sensor_id;sensor_type;location;lat;lon;timestamp;P1;durP1;ratioP1;P2;durP2;ratioP2
69989;SDS011;57331;52.054;5.294;2023-08-06T00:01:52;12.37;;;6.73;;
69989;SDS011;57331;52.054;5.294;2023-08-06T00:04:20;13.18;;;7.30;;
69989;SDS011;57331;52.054;5.294;2023-08-06T00:06:47;14.18;;;7.78;;
69989;SDS011;57331;52.054;5.294;2023-08-06T00:09:15;18.60;;;7.07;;
69989;SDS011;57331;52.054;5.294;2023-08-06T00:11:42;15.90;;;7.45;;
69989;SDS011;57331;52.054;5.294;2023-08-06T00:14:10;14.00;;;7.33;;
69989;SDS011;57331;52.054;5.294;2023-08-06T00:16:37;14.45;;;6.80;;
69989;SDS011;57331;52.054;5.294;2023-08-06T00:19:04;13.85;;;7.38;;
69989;SDS011;57331;52.054;5.294;2023-08-06T00:21:32;14.02;;;6.47;;
69989;SDS011;57331;52.054;5.294;2023-08-06T00:23:59;13.70;;;6.85;;
69989;SDS011;57331;52.054;5.294;2023-08-06T00:26:26;11.53;;;6.93;;
69989;SDS011;57331;52.054;5.294;2023-08-06T00:28:53;14.10;;;6.80;;
69989;SDS011;57331;52.054;5.294;2023-08-06T00:31:20;13.05;;;6.70;;
69989;SDS011;57331;52.054;5.294;2023-08-06T00:33:48;15.27;;;7.15;;
69989;SDS011;57331;52.054;5.294;2023-08-06T00:36:15;13.68;;;7.03;;
69989;SDS011;57331;52.054;5.294;2023-08-06T00:38:42;13.87;;;7.13;;
69989;SDS011;57331;52.054;5.294;2023-08-06T00:41:09;21.35;;;8.25;;
69989;SDS011;57331;52.054;5.294;2023-08-06T00:43:36;13.82;;;7.70;;
69989;SDS011;57331;52.054;5.294;2023-08-06T00:46:03;17.60;;;8.30;;
69989;SDS011;57331;52.054;5.294;2023-08-06T00:48:31;12.90;;;7.57;;
69989;SDS011;57331;52.054;5.294;2023-08-06T00:50:58;14.67;;;6.83;;
69989;SDS011;57331;52.054;5.294;2023-08-06T00:53:26;13.68;;;7.28;;
69989;SDS011;57331;52.054;5.294;2023-08-06T00:55:53;11.68;;;7.10;;
69989;SDS011;57331;52.054;5.294;2023-08-06T00:58:21;12.70;;;7.20;;
69989;SDS011;57331;52.054;5.294;2023-08-06T01:00:48;18.65;;;7.13;;
69989;SDS011;57331;52.054;5.294;2023-08-06T01:03:16;15.10;;;7.53;;
69989;SDS011;57331;52.054;5.294;2023-08-06T01:05:43;14.98;;;7.78;;
69989;SDS011;57331;52.054;5.294;2023-08-06T01:11:18;14.70;;;7.32;;
69989;SDS011;57331;52.054;5.294;2023-08-06T01:14:22;14.00;;;7.50;;
69989;SDS011;57331;52.054;5.294;2023-08-06T01:16:54;13.27;;;7.00;;
69989;SDS011;57331;52.054;5.294;2023-08-06T01:19:22;14.98;;;7.50;;
69989;SDS011;57331;52.054;5.294;2023-08-06T01:21:49;13.73;;;7.22;;
69989;SDS011;57331;52.054;5.294;2023-08-06T01:24:16;13.80;;;6.88;;
69989;SDS011;57331;52.054;5.294;2023-08-06T01:26:45;17.38;;;8.15;;
69989;SDS011;57331;52.054;5.294;2023-08-06T01:29:28;13.90;;;6.97;;
69989;SDS011;57331;52.054;5.294;2023-08-06T01:32:11;17.48;;;7.75;;
69989;SDS011;57331;52.054;5.294;2023-08-06T01:34:40;13.45;;;7.68;;
69989;SDS011;57331;52.054;5.294;2023-08-06T01:37:10;14.55;;;7.50;;
69989;SDS011;57331;52.054;5.294;2023-08-06T01:39:37;14.63;;;7.13;;
69989;SDS011;57331;52.054;5.294;2023-08-06T01:42:08;14.70;;;7.23;;
69989;SDS011;57331;52.054;5.294;2023-08-06T01:44:36;15.77;;;7.35;;
69989;SDS011;57331;52.054;5.294;2023-08-06T01:47:03;13.27;;;7.45;;
69989;SDS011;57331;52.054;5.294;2023-08-06T01:49:31;13.35;;;7.20;;
69989;SDS011;57331;52.054;5.294;2023-08-06T01:51:58;17.52;;;7.57;;
69989;SDS011;57331;52.054;5.294;2023-08-06T01:54:25;13.57;;;7.30;;
69989;SDS011;57331;52.054;5.294;2023-08-06T01:56:52;15.02;;;7.07;;
69989;SDS011;57331;52.054;5.294;2023-08-06T01:59:19;13.18;;;6.68;;
69989;SDS011;57331;52.054;5.294;2023-08-06T02:01:46;15.50;;;7.30;;
69989;SDS011;57331;52.054;5.294;2023-08-06T02:04:14;13.70;;;7.05;;
69989;SDS011;57331;52.054;5.294;2023-08-06T02:06:41;14.57;;;6.20;;
69989;SDS011;57331;52.054;5.294;2023-08-06T02:09:08;13.30;;;6.95;;
69989;SDS011;57331;52.054;5.294;2023-08-06T02:11:35;12.73;;;6.63;;
69989;SDS011;57331;52.054;5.294;2023-08-06T02:14:03;14.63;;;6.35;;
69989;SDS011;57331;52.054;5.294;2023-08-06T02:16:30;14.32;;;6.90;;
69989;SDS011;57331;52.054;5.294;2023-08-06T02:18:57;12.03;;;6.50;;
69989;SDS011;57331;52.054;5.294;2023-08-06T02:21:25;12.25;;;6.82;;
69989;SDS011;57331;52.054;5.294;2023-08-06T02:23:53;13.93;;;7.05;;
69989;SDS011;57331;52.054;5.294;2023-08-06T02:26:20;11.50;;;6.72;;
69989;SDS011;57331;52.054;5.294;2023-08-06T02:28:47;13.85;;;6.90;;
69989;SDS011;57331;52.054;5.294;2023-08-06T02:31:14;16.03;;;7.50;;
69989;SDS011;57331;52.054;5.294;2023-08-06T02:33:42;13.60;;;7.30;;
69989;SDS011;57331;52.054;5.294;2023-08-06T02:36:09;14.60;;;7.50;;
69989;SDS011;57331;52.054;5.294;2023-08-06T02:38:37;12.50;;;7.57;;
69989;SDS011;57331;52.054;5.294;2023-08-06T02:41:04;13.75;;;7.38;;
69989;SDS011;57331;52.054;5.294;2023-08-06T02:43:31;13.87;;;8.03;;
69989;SDS011;57331;52.054;5.294;2023-08-06T02:45:59;16.52;;;8.07;;
69989;SDS011;57331;52.054;5.294;2023-08-06T02:48:27;14.43;;;7.68;;
69989;SDS011;57331;52.054;5.294;2023-08-06T02:50:57;14.15;;;8.27;;
69989;SDS011;57331;52.054;5.294;2023-08-06T02:53:27;13.57;;;7.50;;
69989;SDS011;57331;52.054;5.294;2023-08-06T02:55:55;14.93;;;8.60;;
69989;SDS011;57331;52.054;5.294;2023-08-06T02:58:30;13.18;;;7.88;;
69989;SDS011;57331;52.054;5.294;2023-08-06T03:01:06;14.85;;;8.70;;
69989;SDS011;57331;52.054;5.294;2023-08-06T03:03:49;16.85;;;9.02;;
69989;SDS011;57331;52.054;5.294;2023-08-06T03:06:23;17.00;;;9.63;;
69989;SDS011;57331;52.054;5.294;2023-08-06T03:08:53;17.03;;;9.77;;
69989;SDS011;57331;52.054;5.294;2023-08-06T03:11:20;17.80;;;9.63;;
69989;SDS011;57331;52.054;5.294;2023-08-06T03:13:50;17.85;;;9.90;;
69989;SDS011;57331;52.054;5.294;2023-08-06T03:16:17;20.35;;;11.07;;
69989;SDS011;57331;52.054;5.294;2023-08-06T03:18:45;16.25;;;8.93;;
69989;SDS011;57331;52.054;5.294;2023-08-06T03:21:12;18.53;;;10.83;;
69989;SDS011;57331;52.054;5.294;2023-08-06T03:23:39;23.30;;;11.27;;
69989;SDS011;57331;52.054;5.294;2023-08-06T03:26:07;17.48;;;9.80;;
69989;SDS011;57331;52.054;5.294;2023-08-06T03:28:35;29.67;;;12.10;;
69989;SDS011;57331;52.054;5.294;2023-08-06T03:31:04;20.60;;;11.90;;
69989;SDS011;57331;52.054;5.294;2023-08-06T03:33:37;21.33;;;11.80;;
69989;SDS011;57331;52.054;5.294;2023-08-06T03:36:09;21.17;;;11.93;;
69989;SDS011;57331;52.054;5.294;2023-08-06T03:38:36;21.15;;;12.18;;
69989;SDS011;57331;52.054;5.294;2023-08-06T03:41:06;22.88;;;11.75;;
69989;SDS011;57331;52.054;5.294;2023-08-06T03:43:33;21.80;;;11.95;;
69989;SDS011;57331;52.054;5.294;2023-08-06T03:46:03;22.10;;;12.70;;
69989;SDS011;57331;52.054;5.294;2023-08-06T03:48:30;28.00;;;12.40;;
69989;SDS011;57331;52.054;5.294;2023-08-06T03:50:58;24.65;;;12.45;;
69989;SDS011;57331;52.054;5.294;2023-08-06T03:53:28;22.30;;;12.50;;
69989;SDS011;57331;52.054;5.294;2023-08-06T03:55:55;19.20;;;10.23;;
69989;SDS011;57331;52.054;5.294;2023-08-06T03:58:26;24.63;;;11.47;;
69989;SDS011;57331;52.054;5.294;2023-08-06T04:00:59;22.95;;;12.85;;
69989;SDS011;57331;52.054;5.294;2023-08-06T04:03:33;22.85;;;12.23;;
69989;SDS011;57331;52.054;5.294;2023-08-06T04:06:01;24.98;;;12.65;;
69989;SDS011;57331;52.054;5.294;2023-08-06T04:08:29;24.83;;;13.60;;
69989;SDS011;57331;52.054;5.294;2023-08-06T04:10:56;18.50;;;9.97;;
69989;SDS011;57331;52.054;5.294;2023-08-06T04:13:23;24.17;;;11.77;;
69989;SDS011;57331;52.054;5.294;2023-08-06T04:15:50;22.63;;;12.30;;
69989;SDS011;57331;52.054;5.294;2023-08-06T04:18:18;20.75;;;11.30;;
69989;SDS011;57331;52.054;5.294;2023-08-06T04:20:45;25.40;;;11.95;;
69989;SDS011;57331;52.054;5.294;2023-08-06T04:23:13;23.70;;;12.50;;
69989;SDS011;57331;52.054;5.294;2023-08-06T04:25:41;24.83;;;12.00;;
69989;SDS011;57331;52.054;5.294;2023-08-06T04:28:08;20.80;;;11.90;;
69989;SDS011;57331;52.054;5.294;2023-08-06T04:30:36;22.98;;;11.82;;
69989;SDS011;57331;52.054;5.294;2023-08-06T04:33:04;24.23;;;11.68;;
69989;SDS011;57331;52.054;5.294;2023-08-06T04:35:33;24.30;;;12.90;;
69989;SDS011;57331;52.054;5.294;2023-08-06T04:38:00;21.13;;;10.88;;
69989;SDS011;57331;52.054;5.294;2023-08-06T04:40:27;20.70;;;11.02;;
69989;SDS011;57331;52.054;5.294;2023-08-06T04:42:54;22.30;;;11.93;;
69989;SDS011;57331;52.054;5.294;2023-08-06T04:45:22;23.23;;;12.18;;
69989;SDS011;57331;52.054;5.294;2023-08-06T04:47:50;22.90;;;11.70;;
69989;SDS011;57331;52.054;5.294;2023-08-06T04:50:19;24.13;;;11.93;;
69989;SDS011;57331;52.054;5.294;2023-08-06T04:52:46;22.48;;;11.57;;
69989;SDS011;57331;52.054;5.294;2023-08-06T04:55:13;22.13;;;11.93;;
69989;SDS011;57331;52.054;5.294;2023-08-06T04:57:40;20.73;;;12.40;;
69989;SDS011;57331;52.054;5.294;2023-08-06T05:00:07;22.50;;;11.97;;
69989;SDS011;57331;52.054;5.294;2023-08-06T05:02:34;21.48;;;11.43;;
69989;SDS011;57331;52.054;5.294;2023-08-06T05:05:04;22.88;;;11.88;;
69989;SDS011;57331;52.054;5.294;2023-08-06T05:07:31;22.48;;;12.15;;
69989;SDS011;57331;52.054;5.294;2023-08-06T05:09:59;24.83;;;11.57;;
69989;SDS011;57331;52.054;5.294;2023-08-06T05:12:26;20.07;;;11.77;;
69989;SDS011;57331;52.054;5.294;2023-08-06T05:14:53;21.65;;;11.70;;
69989;SDS011;57331;52.054;5.294;2023-08-06T05:17:20;26.48;;;11.35;;
69989;SDS011;57331;52.054;5.294;2023-08-06T05:19:49;26.42;;;12.38;;
69989;SDS011;57331;52.054;5.294;2023-08-06T05:22:16;21.88;;;11.98;;
69989;SDS011;57331;52.054;5.294;2023-08-06T05:24:43;22.57;;;12.23;;
69989;SDS011;57331;52.054;5.294;2023-08-06T05:27:10;23.88;;;11.52;;
69989;SDS011;57331;52.054;5.294;2023-08-06T05:29:37;24.65;;;12.45;;
69989;SDS011;57331;52.054;5.294;2023-08-06T05:32:04;22.42;;;11.60;;
69989;SDS011;57331;52.054;5.294;2023-08-06T05:37:55;23.73;;;11.93;;
69989;SDS011;57331;52.054;5.294;2023-08-06T05:40:22;22.60;;;11.63;;
69989;SDS011;57331;52.054;5.294;2023-08-06T05:42:53;23.63;;;11.45;;
69989;SDS011;57331;52.054;5.294;2023-08-06T05:45:20;25.67;;;12.65;;
69989;SDS011;57331;52.054;5.294;2023-08-06T05:47:48;24.13;;;12.80;;
69989;SDS011;57331;52.054;5.294;2023-08-06T05:50:16;25.20;;;13.37;;
69989;SDS011;57331;52.054;5.294;2023-08-06T05:52:43;25.67;;;13.13;;
69989;SDS011;57331;52.054;5.294;2023-08-06T05:55:11;24.83;;;13.32;;
69989;SDS011;57331;52.054;5.294;2023-08-06T05:57:38;25.40;;;12.52;;
69989;SDS011;57331;52.054;5.294;2023-08-06T06:00:05;24.52;;;12.63;;
69989;SDS011;57331;52.054;5.294;2023-08-06T06:02:37;25.50;;;12.63;;
69989;SDS011;57331;52.054;5.294;2023-08-06T06:05:04;26.77;;;13.18;;
69989;SDS011;57331;52.054;5.294;2023-08-06T06:07:32;25.40;;;13.18;;
69989;SDS011;57331;52.054;5.294;2023-08-06T06:09:59;24.60;;;11.68;;
69989;SDS011;57331;52.054;5.294;2023-08-06T06:12:25;19.63;;;10.55;;
69989;SDS011;57331;52.054;5.294;2023-08-06T06:14:53;24.10;;;12.43;;
69989;SDS011;57331;52.054;5.294;2023-08-06T06:17:20;25.88;;;11.73;;
69989;SDS011;57331;52.054;5.294;2023-08-06T06:19:47;23.35;;;12.45;;
69989;SDS011;57331;52.054;5.294;2023-08-06T06:22:14;21.92;;;11.00;;
69989;SDS011;57331;52.054;5.294;2023-08-06T06:24:41;20.85;;;11.50;;
69989;SDS011;57331;52.054;5.294;2023-08-06T06:27:08;24.13;;;11.77;;
69989;SDS011;57331;52.054;5.294;2023-08-06T06:29:35;27.00;;;13.68;;
69989;SDS011;57331;52.054;5.294;2023-08-06T06:32:03;20.48;;;10.85;;
69989;SDS011;57331;52.054;5.294;2023-08-06T06:34:30;23.73;;;11.43;;
69989;SDS011;57331;52.054;5.294;2023-08-06T06:36:57;20.33;;;10.82;;
69989;SDS011;57331;52.054;5.294;2023-08-06T06:39:24;22.57;;;11.13;;
69989;SDS011;57331;52.054;5.294;2023-08-06T06:41:51;19.67;;;10.55;;
69989;SDS011;57331;52.054;5.294;2023-08-06T06:44:25;18.35;;;10.32;;
69989;SDS011;57331;52.054;5.294;2023-08-06T06:46:52;17.17;;;9.43;;
69989;SDS011;57331;52.054;5.294;2023-08-06T06:49:19;19.67;;;9.88;;
69989;SDS011;57331;52.054;5.294;2023-08-06T06:51:47;18.90;;;9.70;;
69989;SDS011;57331;52.054;5.294;2023-08-06T06:54:14;15.50;;;7.95;;
69989;SDS011;57331;52.054;5.294;2023-08-06T06:56:41;10.02;;;5.32;;
69989;SDS011;57331;52.054;5.294;2023-08-06T06:59:08;7.18;;;3.30;;
69989;SDS011;57331;52.054;5.294;2023-08-06T07:01:36;7.63;;;3.10;;
69989;SDS011;57331;52.054;5.294;2023-08-06T07:04:03;6.00;;;2.93;;
69989;SDS011;57331;52.054;5.294;2023-08-06T07:06:31;6.40;;;3.20;;
69989;SDS011;57331;52.054;5.294;2023-08-06T07:08:58;6.57;;;3.38;;
69989;SDS011;57331;52.054;5.294;2023-08-06T07:11:25;6.90;;;3.60;;
69989;SDS011;57331;52.054;5.294;2023-08-06T07:13:58;6.47;;;3.22;;
69989;SDS011;57331;52.054;5.294;2023-08-06T07:16:25;5.77;;;3.00;;
69989;SDS011;57331;52.054;5.294;2023-08-06T07:18:53;5.88;;;2.90;;
69989;SDS011;57331;52.054;5.294;2023-08-06T07:21:20;5.22;;;2.80;;
69989;SDS011;57331;52.054;5.294;2023-08-06T07:23:47;6.03;;;2.70;;
69989;SDS011;57331;52.054;5.294;2023-08-06T07:26:18;5.63;;;2.97;;
69989;SDS011;57331;52.054;5.294;2023-08-06T07:28:45;5.40;;;2.70;;
69989;SDS011;57331;52.054;5.294;2023-08-06T07:31:12;6.40;;;2.83;;
69989;SDS011;57331;52.054;5.294;2023-08-06T07:33:40;8.90;;;3.15;;
69989;SDS011;57331;52.054;5.294;2023-08-06T07:36:07;6.65;;;3.50;;
69989;SDS011;57331;52.054;5.294;2023-08-06T07:38:38;8.15;;;3.88;;
69989;SDS011;57331;52.054;5.294;2023-08-06T07:41:06;7.53;;;3.93;;
69989;SDS011;57331;52.054;5.294;2023-08-06T07:43:33;9.55;;;4.72;;
69989;SDS011;57331;52.054;5.294;2023-08-06T07:46:02;10.25;;;4.53;;
69989;SDS011;57331;52.054;5.294;2023-08-06T07:48:29;9.07;;;4.78;;
69989;SDS011;57331;52.054;5.294;2023-08-06T07:50:56;9.50;;;4.75;;
69989;SDS011;57331;52.054;5.294;2023-08-06T07:53:24;9.17;;;4.80;;
69989;SDS011;57331;52.054;5.294;2023-08-06T07:55:54;11.27;;;5.30;;
69989;SDS011;57331;52.054;5.294;2023-08-06T07:58:21;8.95;;;4.50;;
69989;SDS011;57331;52.054;5.294;2023-08-06T08:00:48;9.50;;;5.55;;
69989;SDS011;57331;52.054;5.294;2023-08-06T08:03:16;12.40;;;4.32;;
69989;SDS011;57331;52.054;5.294;2023-08-06T08:05:43;9.00;;;4.67;;
69989;SDS011;57331;52.054;5.294;2023-08-06T08:08:10;7.13;;;3.30;;
69989;SDS011;57331;52.054;5.294;2023-08-06T08:10:38;8.80;;;4.10;;
69989;SDS011;57331;52.054;5.294;2023-08-06T08:13:05;8.10;;;3.88;;
69989;SDS011;57331;52.054;5.294;2023-08-06T08:15:33;7.82;;;3.80;;
69989;SDS011;57331;52.054;5.294;2023-08-06T08:18:00;8.07;;;4.23;;
69989;SDS011;57331;52.054;5.294;2023-08-06T08:20:28;7.30;;;3.80;;
69989;SDS011;57331;52.054;5.294;2023-08-06T08:22:59;8.05;;;4.18;;
69989;SDS011;57331;52.054;5.294;2023-08-06T08:25:26;7.00;;;3.88;;
69989;SDS011;57331;52.054;5.294;2023-08-06T08:27:57;8.35;;;3.95;;
69989;SDS011;57331;52.054;5.294;2023-08-06T08:30:24;8.67;;;4.43;;
69989;SDS011;57331;52.054;5.294;2023-08-06T08:32:52;13.07;;;3.80;;
69989;SDS011;57331;52.054;5.294;2023-08-06T08:35:19;8.95;;;3.60;;
69989;SDS011;57331;52.054;5.294;2023-08-06T08:37:47;8.98;;;4.13;;
69989;SDS011;57331;52.054;5.294;2023-08-06T08:40:14;11.73;;;5.00;;
69989;SDS011;57331;52.054;5.294;2023-08-06T08:42:44;10.03;;;5.03;;
69989;SDS011;57331;52.054;5.294;2023-08-06T08:45:14;8.98;;;4.50;;
69989;SDS011;57331;52.054;5.294;2023-08-06T08:47:41;10.25;;;4.80;;
69989;SDS011;57331;52.054;5.294;2023-08-06T08:50:10;10.95;;;5.63;;
69989;SDS011;57331;52.054;5.294;2023-08-06T08:52:41;8.63;;;4.57;;
69989;SDS011;57331;52.054;5.294;2023-08-06T08:55:09;9.37;;;5.00;;
69989;SDS011;57331;52.054;5.294;2023-08-06T08:57:36;9.10;;;4.88;;
69989;SDS011;57331;52.054;5.294;2023-08-06T09:00:04;12.65;;;5.15;;
69989;SDS011;57331;52.054;5.294;2023-08-06T09:02:32;10.68;;;5.13;;
69989;SDS011;57331;52.054;5.294;2023-08-06T09:05:00;9.10;;;4.93;;
69989;SDS011;57331;52.054;5.294;2023-08-06T09:07:35;13.17;;;5.67;;
69989;SDS011;57331;52.054;5.294;2023-08-06T09:10:05;11.95;;;5.68;;
69989;SDS011;57331;52.054;5.294;2023-08-06T09:12:36;11.63;;;5.85;;
69989;SDS011;57331;52.054;5.294;2023-08-06T09:15:03;12.00;;;6.05;;
69989;SDS011;57331;52.054;5.294;2023-08-06T09:17:31;12.60;;;6.25;;
69989;SDS011;57331;52.054;5.294;2023-08-06T09:19:58;11.67;;;6.30;;
69989;SDS011;57331;52.054;5.294;2023-08-06T09:22:28;11.02;;;5.80;;
69989;SDS011;57331;52.054;5.294;2023-08-06T09:25:01;10.27;;;5.65;;
69989;SDS011;57331;52.054;5.294;2023-08-06T09:27:30;12.30;;;6.15;;
69989;SDS011;57331;52.054;5.294;2023-08-06T09:29:58;10.57;;;4.68;;
69989;SDS011;57331;52.054;5.294;2023-08-06T09:32:24;11.07;;;5.40;;
69989;SDS011;57331;52.054;5.294;2023-08-06T09:34:55;13.52;;;5.75;;
69989;SDS011;57331;52.054;5.294;2023-08-06T09:37:23;11.27;;;5.93;;
69989;SDS011;57331;52.054;5.294;2023-08-06T09:39:50;10.63;;;5.40;;
69989;SDS011;57331;52.054;5.294;2023-08-06T09:42:19;11.13;;;5.72;;
69989;SDS011;57331;52.054;5.294;2023-08-06T09:44:47;9.73;;;5.07;;
69989;SDS011;57331;52.054;5.294;2023-08-06T09:47:15;13.05;;;5.10;;
69989;SDS011;57331;52.054;5.294;2023-08-06T09:49:44;10.57;;;5.75;;
69989;SDS011;57331;52.054;5.294;2023-08-06T09:52:12;12.35;;;6.93;;
69989;SDS011;57331;52.054;5.294;2023-08-06T09:54:40;10.55;;;5.82;;
69989;SDS011;57331;52.054;5.294;2023-08-06T09:57:07;12.03;;;5.73;;
69989;SDS011;57331;52.054;5.294;2023-08-06T09:59:35;12.75;;;5.90;;
69989;SDS011;57331;52.054;5.294;2023-08-06T10:02:07;11.65;;;5.45;;
69989;SDS011;57331;52.054;5.294;2023-08-06T10:04:39;12.80;;;5.72;;
69989;SDS011;57331;52.054;5.294;2023-08-06T10:07:07;11.05;;;5.63;;
69989;SDS011;57331;52.054;5.294;2023-08-06T10:09:35;11.63;;;4.97;;
69989;SDS011;57331;52.054;5.294;2023-08-06T10:12:03;8.73;;;4.57;;
69989;SDS011;57331;52.054;5.294;2023-08-06T10:14:32;10.30;;;4.90;;
69989;SDS011;57331;52.054;5.294;2023-08-06T10:17:01;11.15;;;5.18;;
69989;SDS011;57331;52.054;5.294;2023-08-06T10:19:32;10.85;;;5.07;;
69989;SDS011;57331;52.054;5.294;2023-08-06T10:22:12;8.80;;;4.40;;
69989;SDS011;57331;52.054;5.294;2023-08-06T10:24:53;9.48;;;4.38;;
69989;SDS011;57331;52.054;5.294;2023-08-06T10:27:22;8.57;;;4.30;;
69989;SDS011;57331;52.054;5.294;2023-08-06T10:32:50;8.57;;;4.15;;
69989;SDS011;57331;52.054;5.294;2023-08-06T10:35:29;10.80;;;3.70;;
69989;SDS011;57331;52.054;5.294;2023-08-06T10:38:22;9.48;;;3.72;;
69989;SDS011;57331;52.054;5.294;2023-08-06T10:43:26;11.50;;;4.50;;
69989;SDS011;57331;52.054;5.294;2023-08-06T10:45:58;9.70;;;4.53;;
69989;SDS011;57331;52.054;5.294;2023-08-06T10:48:39;10.70;;;3.70;;
69989;SDS011;57331;52.054;5.294;2023-08-06T10:51:09;8.05;;;3.42;;
69989;SDS011;57331;52.054;5.294;2023-08-06T10:53:37;7.90;;;3.70;;
69989;SDS011;57331;52.054;5.294;2023-08-06T10:56:14;8.88;;;3.67;;
69989;SDS011;57331;52.054;5.294;2023-08-06T10:58:42;9.82;;;3.03;;
69989;SDS011;57331;52.054;5.294;2023-08-06T11:01:11;8.83;;;3.10;;
69989;SDS011;57331;52.054;5.294;2023-08-06T11:03:38;8.43;;;3.75;;
69989;SDS011;57331;52.054;5.294;2023-08-06T11:06:09;9.50;;;3.75;;
69989;SDS011;57331;52.054;5.294;2023-08-06T11:08:37;6.68;;;2.60;;
69989;SDS011;57331;52.054;5.294;2023-08-06T11:11:14;11.65;;;3.92;;
69989;SDS011;57331;52.054;5.294;2023-08-06T11:13:42;9.57;;;3.00;;
69989;SDS011;57331;52.054;5.294;2023-08-06T11:16:10;9.90;;;3.60;;
69989;SDS011;57331;52.054;5.294;2023-08-06T11:18:38;11.32;;;4.32;;
69989;SDS011;57331;52.054;5.294;2023-08-06T11:21:06;11.10;;;4.25;;
69989;SDS011;57331;52.054;5.294;2023-08-06T11:23:34;9.23;;;2.80;;
69989;SDS011;57331;52.054;5.294;2023-08-06T11:26:02;6.27;;;2.70;;
69989;SDS011;57331;52.054;5.294;2023-08-06T11:28:29;6.90;;;2.63;;
69989;SDS011;57331;52.054;5.294;2023-08-06T11:30:57;6.80;;;2.63;;
69989;SDS011;57331;52.054;5.294;2023-08-06T11:33:27;4.95;;;2.05;;
69989;SDS011;57331;52.054;5.294;2023-08-06T11:35:55;5.00;;;2.38;;
69989;SDS011;57331;52.054;5.294;2023-08-06T11:38:33;5.43;;;2.43;;
69989;SDS011;57331;52.054;5.294;2023-08-06T11:41:01;6.68;;;2.72;;
69989;SDS011;57331;52.054;5.294;2023-08-06T11:43:29;5.93;;;2.13;;
69989;SDS011;57331;52.054;5.294;2023-08-06T11:45:57;7.97;;;2.88;;
69989;SDS011;57331;52.054;5.294;2023-08-06T11:48:25;8.23;;;2.13;;
69989;SDS011;57331;52.054;5.294;2023-08-06T11:50:55;7.40;;;2.37;;
69989;SDS011;57331;52.054;5.294;2023-08-06T11:53:27;7.05;;;2.20;;
69989;SDS011;57331;52.054;5.294;2023-08-06T11:55:55;8.18;;;2.10;;
69989;SDS011;57331;52.054;5.294;2023-08-06T11:58:22;5.28;;;1.80;;
69989;SDS011;57331;52.054;5.294;2023-08-06T12:00:50;4.43;;;2.00;;
69989;SDS011;57331;52.054;5.294;2023-08-06T12:03:18;8.07;;;1.87;;
69989;SDS011;57331;52.054;5.294;2023-08-06T12:05:47;5.22;;;1.90;;
69989;SDS011;57331;52.054;5.294;2023-08-06T12:08:14;6.47;;;2.13;;
69989;SDS011;57331;52.054;5.294;2023-08-06T12:10:42;5.80;;;1.85;;
69989;SDS011;57331;52.054;5.294;2023-08-06T12:13:09;5.75;;;2.28;;
69989;SDS011;57331;52.054;5.294;2023-08-06T12:15:37;7.70;;;1.93;;
69989;SDS011;57331;52.054;5.294;2023-08-06T12:18:05;8.95;;;2.10;;
69989;SDS011;57331;52.054;5.294;2023-08-06T12:20:32;5.97;;;2.17;;
69989;SDS011;57331;52.054;5.294;2023-08-06T12:22:59;5.10;;;2.00;;
69989;SDS011;57331;52.054;5.294;2023-08-06T12:25:26;4.65;;;2.00;;
69989;SDS011;57331;52.054;5.294;2023-08-06T12:27:55;5.00;;;2.10;;
69989;SDS011;57331;52.054;5.294;2023-08-06T12:30:22;5.15;;;1.75;;
69989;SDS011;57331;52.054;5.294;2023-08-06T12:32:49;5.35;;;2.10;;
69989;SDS011;57331;52.054;5.294;2023-08-06T12:35:18;8.90;;;3.00;;
69989;SDS011;57331;52.054;5.294;2023-08-06T12:37:46;8.13;;;1.90;;
69989;SDS011;57331;52.054;5.294;2023-08-06T12:40:13;5.80;;;2.33;;
69989;SDS011;57331;52.054;5.294;2023-08-06T12:43:01;4.10;;;1.90;;
69989;SDS011;57331;52.054;5.294;2023-08-06T12:45:28;6.43;;;1.90;;
69989;SDS011;57331;52.054;5.294;2023-08-06T12:47:55;5.15;;;2.17;;
69989;SDS011;57331;52.054;5.294;2023-08-06T12:50:23;5.85;;;1.90;;
69989;SDS011;57331;52.054;5.294;2023-08-06T12:52:50;6.10;;;2.20;;
69989;SDS011;57331;52.054;5.294;2023-08-06T12:55:17;6.30;;;1.85;;
69989;SDS011;57331;52.054;5.294;2023-08-06T12:57:44;10.98;;;3.08;;
69989;SDS011;57331;52.054;5.294;2023-08-06T13:00:23;9.35;;;2.95;;
69989;SDS011;57331;52.054;5.294;2023-08-06T13:02:50;7.75;;;2.75;;
69989;SDS011;57331;52.054;5.294;2023-08-06T13:05:18;8.40;;;2.37;;
69989;SDS011;57331;52.054;5.294;2023-08-06T13:07:46;6.65;;;2.60;;
69989;SDS011;57331;52.054;5.294;2023-08-06T13:10:13;8.57;;;2.80;;
69989;SDS011;57331;52.054;5.294;2023-08-06T13:12:40;8.32;;;2.75;;
69989;SDS011;57331;52.054;5.294;2023-08-06T13:15:07;7.22;;;3.38;;
69989;SDS011;57331;52.054;5.294;2023-08-06T13:17:34;7.27;;;2.70;;
69989;SDS011;57331;52.054;5.294;2023-08-06T13:20:02;7.82;;;2.70;;
69989;SDS011;57331;52.054;5.294;2023-08-06T13:22:29;6.13;;;2.70;;
69989;SDS011;57331;52.054;5.294;2023-08-06T13:24:57;8.70;;;4.82;;
69989;SDS011;57331;52.054;5.294;2023-08-06T13:27:24;10.18;;;5.68;;
69989;SDS011;57331;52.054;5.294;2023-08-06T13:29:51;7.80;;;3.13;;
69989;SDS011;57331;52.054;5.294;2023-08-06T13:32:19;7.10;;;2.53;;
69989;SDS011;57331;52.054;5.294;2023-08-06T13:34:46;7.45;;;2.63;;
69989;SDS011;57331;52.054;5.294;2023-08-06T13:37:13;7.15;;;3.70;;
69989;SDS011;57331;52.054;5.294;2023-08-06T13:39:40;7.53;;;4.32;;
69989;SDS011;57331;52.054;5.294;2023-08-06T13:42:07;9.03;;;5.27;;
69989;SDS011;57331;52.054;5.294;2023-08-06T13:44:35;9.30;;;4.15;;
69989;SDS011;57331;52.054;5.294;2023-08-06T13:47:02;6.45;;;3.00;;
69989;SDS011;57331;52.054;5.294;2023-08-06T13:49:30;6.97;;;2.83;;
69989;SDS011;57331;52.054;5.294;2023-08-06T13:51:57;7.38;;;3.92;;
69989;SDS011;57331;52.054;5.294;2023-08-06T13:54:41;13.30;;;7.00;;
69989;SDS011;57331;52.054;5.294;2023-08-06T13:57:08;9.18;;;4.10;;
69989;SDS011;57331;52.054;5.294;2023-08-06T13:59:35;7.90;;;4.30;;
69989;SDS011;57331;52.054;5.294;2023-08-06T14:02:02;7.97;;;2.80;;
69989;SDS011;57331;52.054;5.294;2023-08-06T14:04:30;9.95;;;2.80;;
69989;SDS011;57331;52.054;5.294;2023-08-06T14:06:57;11.23;;;4.70;;
69989;SDS011;57331;52.054;5.294;2023-08-06T14:09:24;6.50;;;3.05;;
69989;SDS011;57331;52.054;5.294;2023-08-06T14:11:52;8.65;;;3.60;;
69989;SDS011;57331;52.054;5.294;2023-08-06T14:14:20;10.45;;;3.22;;
69989;SDS011;57331;52.054;5.294;2023-08-06T14:16:52;7.07;;;2.67;;
69989;SDS011;57331;52.054;5.294;2023-08-06T14:19:21;10.20;;;3.73;;
69989;SDS011;57331;52.054;5.294;2023-08-06T14:21:49;5.93;;;2.75;;
69989;SDS011;57331;52.054;5.294;2023-08-06T14:24:17;10.68;;;5.05;;
69989;SDS011;57331;52.054;5.294;2023-08-06T14:26:44;6.40;;;2.63;;
69989;SDS011;57331;52.054;5.294;2023-08-06T14:29:12;11.88;;;6.05;;
69989;SDS011;57331;52.054;5.294;2023-08-06T14:31:40;11.07;;;4.03;;
69989;SDS011;57331;52.054;5.294;2023-08-06T14:34:07;9.65;;;3.50;;
69989;SDS011;57331;52.054;5.294;2023-08-06T14:36:35;6.32;;;2.60;;
69989;SDS011;57331;52.054;5.294;2023-08-06T14:39:02;6.03;;;2.85;;
69989;SDS011;57331;52.054;5.294;2023-08-06T14:41:29;7.07;;;3.13;;
69989;SDS011;57331;52.054;5.294;2023-08-06T14:43:56;5.17;;;2.33;;
69989;SDS011;57331;52.054;5.294;2023-08-06T14:46:23;8.80;;;2.83;;
69989;SDS011;57331;52.054;5.294;2023-08-06T14:48:51;6.82;;;3.20;;
69989;SDS011;57331;52.054;5.294;2023-08-06T14:51:18;7.55;;;3.83;;
69989;SDS011;57331;52.054;5.294;2023-08-06T14:53:47;6.88;;;3.35;;
69989;SDS011;57331;52.054;5.294;2023-08-06T14:56:14;7.07;;;3.17;;